sensor_id;sensor_type;location;lat;lon;timestamp;P1;durP1;ratioP1;P2;durP2;ratioP2
8927;SDS011;4499;48.304;11.902;2022-07-04T00:01:57;5.53;;;2.53;;
8927;SDS011;4499;48.304;11.902;2022-07-04T00:04:27;5.17;;;2.63;;
8927;SDS011;4499;48.304;11.902;2022-07-04T00:06:55;4.63;;;2.73;;
8927;SDS011;4499;48.304;11.902;2022-07-04T00:09:25;3.37;;;2.50;;
8927;SDS011;4499;48.304;11.902;2022-07-04T00:11:53;4.43;;;2.50;;
8927;SDS011;4499;48.304;11.902;2022-07-04T00:14:21;5.43;;;2.53;;
8927;SDS011;4499;48.304;11.902;2022-07-04T00:16:50;5.30;;;3.00;;
8927;SDS011;4499;48.304;11.902;2022-07-04T00:19:18;3.47;;;2.70;;
8927;SDS011;4499;48.304;11.902;2022-07-04T00:21:46;5.37;;;2.93;;
8927;SDS011;4499;48.304;11.902;2022-07-04T00:24:14;5.23;;;2.80;;
8927;SDS011;4499;48.304;11.902;2022-07-04T00:26:44;4.57;;;2.90;;
8927;SDS011;4499;48.304;11.902;2022-07-04T00:29:12;7.43;;;2.50;;
8927;SDS011;4499;48.304;11.902;2022-07-04T00:31:41;5.93;;;2.77;;
8927;SDS011;4499;48.304;11.902;2022-07-04T00:34:10;4.70;;;2.20;;
8927;SDS011;4499;48.304;11.902;2022-07-04T00:36:38;5.13;;;2.70;;
8927;SDS011;4499;48.304;11.902;2022-07-04T00:39:06;6.80;;;2.87;;
8927;SDS011;4499;48.304;11.902;2022-07-04T00:41:34;6.60;;;2.87;;
8927;SDS011;4499;48.304;11.902;2022-07-04T00:44:05;5.87;;;2.67;;
8927;SDS011;4499;48.304;11.902;2022-07-04T00:46:39;7.80;;;2.87;;
8927;SDS011;4499;48.304;11.902;2022-07-04T00:49:07;6.80;;;2.70;;
8927;SDS011;4499;48.304;11.902;2022-07-04T00:51:37;4.87;;;2.40;;
8927;SDS011;4499;48.304;11.902;2022-07-04T00:54:08;4.13;;;2.70;;
8927;SDS011;4499;48.304;11.902;2022-07-04T00:56:37;3.47;;;2.40;;
8927;SDS011;4499;48.304;11.902;2022-07-04T00:59:08;3.77;;;2.40;;
8927;SDS011;4499;48.304;11.902;2022-07-04T01:01:37;5.70;;;2.40;;
8927;SDS011;4499;48.304;11.902;2022-07-04T01:04:06;5.40;;;2.30;;
8927;SDS011;4499;48.304;11.902;2022-07-04T01:06:34;3.43;;;2.40;;
8927;SDS011;4499;48.304;11.902;2022-07-04T01:09:02;3.93;;;2.40;;
8927;SDS011;4499;48.304;11.902;2022-07-04T01:11:31;7.00;;;2.20;;
8927;SDS011;4499;48.304;11.902;2022-07-04T01:14:00;4.37;;;2.20;;
8927;SDS011;4499;48.304;11.902;2022-07-04T01:16:30;4.43;;;2.20;;
8927;SDS011;4499;48.304;11.902;2022-07-04T01:18:58;2.77;;;2.20;;
8927;SDS011;4499;48.304;11.902;2022-07-04T01:21:28;4.60;;;2.47;;
8927;SDS011;4499;48.304;11.902;2022-07-04T01:23:58;5.10;;;2.20;;
8927;SDS011;4499;48.304;11.902;2022-07-04T01:26:27;4.43;;;2.43;;
8927;SDS011;4499;48.304;11.902;2022-07-04T01:28:56;4.67;;;1.90;;
8927;SDS011;4499;48.304;11.902;2022-07-04T01:31:24;10.60;;;2.23;;
8927;SDS011;4499;48.304;11.902;2022-07-04T01:33:53;3.07;;;2.40;;
8927;SDS011;4499;48.304;11.902;2022-07-04T01:36:21;3.30;;;1.87;;
8927;SDS011;4499;48.304;11.902;2022-07-04T01:38:50;3.00;;;2.00;;
8927;SDS011;4499;48.304;11.902;2022-07-04T01:41:19;2.13;;;1.80;;
8927;SDS011;4499;48.304;11.902;2022-07-04T01:43:47;3.27;;;1.73;;
8927;SDS011;4499;48.304;11.902;2022-07-04T01:46:15;2.67;;;1.87;;
8927;SDS011;4499;48.304;11.902;2022-07-04T01:48:43;4.03;;;1.70;;
8927;SDS011;4499;48.304;11.902;2022-07-04T01:51:12;4.03;;;1.53;;
8927;SDS011;4499;48.304;11.902;2022-07-04T01:53:40;3.60;;;2.00;;
8927;SDS011;4499;48.304;11.902;2022-07-04T01:56:09;3.07;;;1.73;;
8927;SDS011;4499;48.304;11.902;2022-07-04T01:58:38;3.07;;;1.60;;
8927;SDS011;4499;48.304;11.902;2022-07-04T02:01:06;3.70;;;1.57;;
8927;SDS011;4499;48.304;11.902;2022-07-04T02:03:52;2.27;;;1.70;;
8927;SDS011;4499;48.304;11.902;2022-07-04T02:06:20;2.60;;;1.60;;
8927;SDS011;4499;48.304;11.902;2022-07-04T02:08:48;3.10;;;1.90;;
8927;SDS011;4499;48.304;11.902;2022-07-04T02:11:35;4.40;;;1.80;;
8927;SDS011;4499;48.304;11.902;2022-07-04T02:14:22;4.10;;;1.90;;
8927;SDS011;4499;48.304;11.902;2022-07-04T02:16:50;3.87;;;2.00;;
8927;SDS011;4499;48.304;11.902;2022-07-04T02:19:19;3.47;;;1.60;;
8927;SDS011;4499;48.304;11.902;2022-07-04T02:21:47;2.67;;;1.80;;
8927;SDS011;4499;48.304;11.902;2022-07-04T02:24:17;2.07;;;1.70;;
8927;SDS011;4499;48.304;11.902;2022-07-04T02:26:47;5.30;;;1.80;;
8927;SDS011;4499;48.304;11.902;2022-07-04T02:29:16;3.30;;;1.90;;
8927;SDS011;4499;48.304;11.902;2022-07-04T02:31:45;2.53;;;1.80;;
8927;SDS011;4499;48.304;11.902;2022-07-04T02:34:13;3.00;;;1.80;;
8927;SDS011;4499;48.304;11.902;2022-07-04T02:36:41;4.27;;;2.07;;
8927;SDS011;4499;48.304;11.902;2022-07-04T02:39:10;2.27;;;1.73;;
8927;SDS011;4499;48.304;11.902;2022-07-04T02:41:38;2.20;;;1.87;;
8927;SDS011;4499;48.304;11.902;2022-07-04T02:44:08;2.60;;;1.90;;
8927;SDS011;4499;48.304;11.902;2022-07-04T02:46:36;3.23;;;1.80;;
8927;SDS011;4499;48.304;11.902;2022-07-04T02:49:05;3.17;;;1.93;;
8927;SDS011;4499;48.304;11.902;2022-07-04T02:51:35;4.23;;;1.90;;
8927;SDS011;4499;48.304;11.902;2022-07-04T02:54:03;2.67;;;1.90;;
8927;SDS011;4499;48.304;11.902;2022-07-04T02:56:31;2.67;;;2.17;;
8927;SDS011;4499;48.304;11.902;2022-07-04T02:58:59;4.40;;;1.90;;
8927;SDS011;4499;48.304;11.902;2022-07-04T03:01:29;3.57;;;2.00;;
8927;SDS011;4499;48.304;11.902;2022-07-04T03:03:58;2.20;;;2.00;;
8927;SDS011;4499;48.304;11.902;2022-07-04T03:06:27;3.97;;;2.00;;
8927;SDS011;4499;48.304;11.902;2022-07-04T03:08:55;2.70;;;2.03;;
8927;SDS011;4499;48.304;11.902;2022-07-04T03:11:23;2.30;;;2.00;;
8927;SDS011;4499;48.304;11.902;2022-07-04T03:13:51;3.50;;;2.00;;
8927;SDS011;4499;48.304;11.902;2022-07-04T03:16:20;3.17;;;2.17;;
8927;SDS011;4499;48.304;11.902;2022-07-04T03:18:50;3.17;;;1.83;;
8927;SDS011;4499;48.304;11.902;2022-07-04T03:21:18;3.47;;;2.20;;
8927;SDS011;4499;48.304;11.902;2022-07-04T03:23:46;3.03;;;1.93;;
8927;SDS011;4499;48.304;11.902;2022-07-04T03:26:24;3.53;;;2.00;;
8927;SDS011;4499;48.304;11.902;2022-07-04T03:28:53;3.83;;;2.00;;
8927;SDS011;4499;48.304;11.902;2022-07-04T03:31:21;5.27;;;1.90;;
8927;SDS011;4499;48.304;11.902;2022-07-04T03:33:51;2.43;;;2.00;;
8927;SDS011;4499;48.304;11.902;2022-07-04T03:36:21;3.63;;;2.10;;
8927;SDS011;4499;48.304;11.902;2022-07-04T03:38:50;3.73;;;2.10;;
8927;SDS011;4499;48.304;11.902;2022-07-04T03:41:18;2.13;;;1.93;;
8927;SDS011;4499;48.304;11.902;2022-07-04T03:43:46;3.63;;;2.20;;
8927;SDS011;4499;48.304;11.902;2022-07-04T03:46:14;2.20;;;2.00;;
8927;SDS011;4499;48.304;11.902;2022-07-04T03:48:43;3.07;;;2.27;;
8927;SDS011;4499;48.304;11.902;2022-07-04T03:51:12;3.73;;;2.00;;
8927;SDS011;4499;48.304;11.902;2022-07-04T03:53:41;2.70;;;2.20;;
8927;SDS011;4499;48.304;11.902;2022-07-04T03:56:09;3.53;;;2.10;;
8927;SDS011;4499;48.304;11.902;2022-07-04T03:58:37;2.20;;;2.00;;
8927;SDS011;4499;48.304;11.902;2022-07-04T04:01:06;3.17;;;2.10;;
8927;SDS011;4499;48.304;11.902;2022-07-04T04:03:34;2.80;;;2.07;;
8927;SDS011;4499;48.304;11.902;2022-07-04T04:06:21;4.27;;;2.00;;
8927;SDS011;4499;48.304;11.902;2022-07-04T04:08:49;4.73;;;2.20;;
8927;SDS011;4499;48.304;11.902;2022-07-04T04:11:18;2.60;;;2.07;;
8927;SDS011;4499;48.304;11.902;2022-07-04T04:13:46;2.43;;;2.07;;
8927;SDS011;4499;48.304;11.902;2022-07-04T04:16:14;2.90;;;2.13;;
8927;SDS011;4499;48.304;11.902;2022-07-04T04:18:43;3.37;;;2.10;;
8927;SDS011;4499;48.304;11.902;2022-07-04T04:21:11;4.37;;;2.10;;
8927;SDS011;4499;48.304;11.902;2022-07-04T04:23:41;3.93;;;2.30;;
8927;SDS011;4499;48.304;11.902;2022-07-04T04:26:10;3.07;;;2.07;;
8927;SDS011;4499;48.304;11.902;2022-07-04T04:28:38;3.70;;;2.27;;
8927;SDS011;4499;48.304;11.902;2022-07-04T04:31:07;4.57;;;2.03;;
8927;SDS011;4499;48.304;11.902;2022-07-04T04:33:35;3.67;;;2.10;;
8927;SDS011;4499;48.304;11.902;2022-07-04T04:36:04;2.93;;;2.00;;
8927;SDS011;4499;48.304;11.902;2022-07-04T04:38:33;3.23;;;2.40;;
8927;SDS011;4499;48.304;11.902;2022-07-04T04:41:02;3.23;;;2.50;;
8927;SDS011;4499;48.304;11.902;2022-07-04T04:43:31;2.77;;;2.30;;
8927;SDS011;4499;48.304;11.902;2022-07-04T04:45:59;2.50;;;2.13;;
8927;SDS011;4499;48.304;11.902;2022-07-04T04:48:28;4.23;;;2.63;;
8927;SDS011;4499;48.304;11.902;2022-07-04T04:50:56;2.43;;;2.23;;
8927;SDS011;4499;48.304;11.902;2022-07-04T04:53:25;3.50;;;2.30;;
8927;SDS011;4499;48.304;11.902;2022-07-04T04:55:53;3.27;;;2.50;;
8927;SDS011;4499;48.304;11.902;2022-07-04T04:58:23;3.17;;;2.20;;
8927;SDS011;4499;48.304;11.902;2022-07-04T05:00:51;2.97;;;2.40;;
8927;SDS011;4499;48.304;11.902;2022-07-04T05:03:40;2.43;;;2.23;;
8927;SDS011;4499;48.304;11.902;2022-07-04T05:06:08;4.50;;;2.40;;
8927;SDS011;4499;48.304;11.902;2022-07-04T05:08:36;3.40;;;2.27;;
8927;SDS011;4499;48.304;11.902;2022-07-04T05:11:05;2.73;;;2.43;;
8927;SDS011;4499;48.304;11.902;2022-07-04T05:13:35;3.63;;;2.40;;
8927;SDS011;4499;48.304;11.902;2022-07-04T05:16:03;3.80;;;2.17;;
8927;SDS011;4499;48.304;11.902;2022-07-04T05:18:32;3.03;;;2.30;;
8927;SDS011;4499;48.304;11.902;2022-07-04T05:21:00;3.47;;;2.50;;
8927;SDS011;4499;48.304;11.902;2022-07-04T05:23:28;3.80;;;2.67;;
8927;SDS011;4499;48.304;11.902;2022-07-04T05:25:57;5.07;;;2.53;;
8927;SDS011;4499;48.304;11.902;2022-07-04T05:28:25;4.17;;;2.40;;
8927;SDS011;4499;48.304;11.902;2022-07-04T05:30:55;4.77;;;2.30;;
8927;SDS011;4499;48.304;11.902;2022-07-04T05:33:23;3.50;;;2.40;;
8927;SDS011;4499;48.304;11.902;2022-07-04T05:35:51;4.40;;;2.23;;
8927;SDS011;4499;48.304;11.902;2022-07-04T05:38:20;4.13;;;2.30;;
8927;SDS011;4499;48.304;11.902;2022-07-04T05:40:48;2.50;;;2.30;;
8927;SDS011;4499;48.304;11.902;2022-07-04T05:43:16;3.83;;;2.20;;
8927;SDS011;4499;48.304;11.902;2022-07-04T05:45:44;2.80;;;2.23;;
8927;SDS011;4499;48.304;11.902;2022-07-04T05:48:15;3.33;;;2.20;;
8927;SDS011;4499;48.304;11.902;2022-07-04T05:50:44;5.63;;;2.33;;
8927;SDS011;4499;48.304;11.902;2022-07-04T05:53:13;3.33;;;2.33;;
8927;SDS011;4499;48.304;11.902;2022-07-04T05:55:41;3.77;;;2.40;;
8927;SDS011;4499;48.304;11.902;2022-07-04T05:58:09;3.70;;;2.20;;
8927;SDS011;4499;48.304;11.902;2022-07-04T06:00:38;3.37;;;2.23;;
8927;SDS011;4499;48.304;11.902;2022-07-04T06:03:07;5.67;;;2.17;;
8927;SDS011;4499;48.304;11.902;2022-07-04T06:05:37;3.80;;;2.27;;
8927;SDS011;4499;48.304;11.902;2022-07-04T06:08:05;6.50;;;2.13;;
8927;SDS011;4499;48.304;11.902;2022-07-04T06:10:33;3.77;;;2.00;;
8927;SDS011;4499;48.304;11.902;2022-07-04T06:13:01;5.73;;;2.20;;
8927;SDS011;4499;48.304;11.902;2022-07-04T06:15:35;3.23;;;1.90;;
8927;SDS011;4499;48.304;11.902;2022-07-04T06:18:03;2.73;;;1.70;;
8927;SDS011;4499;48.304;11.902;2022-07-04T06:20:32;2.90;;;1.90;;
8927;SDS011;4499;48.304;11.902;2022-07-04T06:23:04;2.13;;;1.70;;
8927;SDS011;4499;48.304;11.902;2022-07-04T06:25:32;4.13;;;1.97;;
8927;SDS011;4499;48.304;11.902;2022-07-04T06:28:01;2.13;;;1.90;;
8927;SDS011;4499;48.304;11.902;2022-07-04T06:30:29;2.83;;;2.00;;
8927;SDS011;4499;48.304;11.902;2022-07-04T06:33:00;3.97;;;1.80;;
8927;SDS011;4499;48.304;11.902;2022-07-04T06:35:29;2.53;;;1.83;;
8927;SDS011;4499;48.304;11.902;2022-07-04T06:38:17;5.27;;;2.10;;
8927;SDS011;4499;48.304;11.902;2022-07-04T06:40:46;3.40;;;1.90;;
8927;SDS011;4499;48.304;11.902;2022-07-04T06:43:16;3.77;;;2.00;;
8927;SDS011;4499;48.304;11.902;2022-07-04T06:45:44;3.97;;;2.10;;
8927;SDS011;4499;48.304;11.902;2022-07-04T06:48:13;2.80;;;2.10;;
8927;SDS011;4499;48.304;11.902;2022-07-04T06:50:43;3.57;;;2.13;;
8927;SDS011;4499;48.304;11.902;2022-07-04T06:53:11;3.17;;;2.03;;
8927;SDS011;4499;48.304;11.902;2022-07-04T06:55:41;2.77;;;1.90;;
8927;SDS011;4499;48.304;11.902;2022-07-04T06:58:10;4.67;;;2.47;;
8927;SDS011;4499;48.304;11.902;2022-07-04T07:00:39;3.13;;;1.90;;
8927;SDS011;4499;48.304;11.902;2022-07-04T07:03:09;6.67;;;2.07;;
8927;SDS011;4499;48.304;11.902;2022-07-04T07:05:37;3.40;;;2.00;;
8927;SDS011;4499;48.304;11.902;2022-07-04T07:08:25;4.07;;;2.10;;
8927;SDS011;4499;48.304;11.902;2022-07-04T07:10:55;3.13;;;1.90;;
8927;SDS011;4499;48.304;11.902;2022-07-04T07:13:24;3.50;;;2.00;;
8927;SDS011;4499;48.304;11.902;2022-07-04T07:15:52;3.27;;;2.10;;
8927;SDS011;4499;48.304;11.902;2022-07-04T07:18:21;3.70;;;1.90;;
8927;SDS011;4499;48.304;11.902;2022-07-04T07:20:49;2.37;;;1.70;;
8927;SDS011;4499;48.304;11.902;2022-07-04T07:25:59;2.73;;;1.80;;
8927;SDS011;4499;48.304;11.902;2022-07-04T07:28:27;3.37;;;1.87;;
8927;SDS011;4499;48.304;11.902;2022-07-04T07:30:55;2.97;;;2.13;;
8927;SDS011;4499;48.304;11.902;2022-07-04T07:33:23;2.23;;;1.80;;
8927;SDS011;4499;48.304;11.902;2022-07-04T07:35:52;3.20;;;2.00;;
8927;SDS011;4499;48.304;11.902;2022-07-04T07:38:20;2.57;;;1.80;;
8927;SDS011;4499;48.304;11.902;2022-07-04T07:40:49;4.07;;;2.00;;
8927;SDS011;4499;48.304;11.902;2022-07-04T07:43:19;1.83;;;1.67;;
8927;SDS011;4499;48.304;11.902;2022-07-04T07:45:47;1.97;;;1.77;;
8927;SDS011;4499;48.304;11.902;2022-07-04T07:48:15;2.93;;;1.83;;
8927;SDS011;4499;48.304;11.902;2022-07-04T07:50:45;2.90;;;1.70;;
8927;SDS011;4499;48.304;11.902;2022-07-04T07:53:13;2.70;;;1.80;;
8927;SDS011;4499;48.304;11.902;2022-07-04T07:55:42;4.27;;;2.10;;
8927;SDS011;4499;48.304;11.902;2022-07-04T07:58:10;3.10;;;1.90;;
8927;SDS011;4499;48.304;11.902;2022-07-04T08:00:40;6.73;;;1.97;;
8927;SDS011;4499;48.304;11.902;2022-07-04T08:03:24;2.93;;;1.90;;
8927;SDS011;4499;48.304;11.902;2022-07-04T08:06:10;4.30;;;1.70;;
8927;SDS011;4499;48.304;11.902;2022-07-04T08:08:39;3.00;;;1.87;;
8927;SDS011;4499;48.304;11.902;2022-07-04T08:11:07;2.33;;;1.63;;
8927;SDS011;4499;48.304;11.902;2022-07-04T08:13:36;2.30;;;1.70;;
8927;SDS011;4499;48.304;11.902;2022-07-04T08:16:06;3.73;;;1.67;;
8927;SDS011;4499;48.304;11.902;2022-07-04T08:18:35;2.97;;;2.00;;
8927;SDS011;4499;48.304;11.902;2022-07-04T08:21:03;4.63;;;1.80;;
8927;SDS011;4499;48.304;11.902;2022-07-04T08:23:38;4.07;;;1.83;;
8927;SDS011;4499;48.304;11.902;2022-07-04T08:26:27;3.50;;;1.70;;
8927;SDS011;4499;48.304;11.902;2022-07-04T08:28:56;3.37;;;1.70;;
8927;SDS011;4499;48.304;11.902;2022-07-04T08:31:27;2.50;;;1.73;;
8927;SDS011;4499;48.304;11.902;2022-07-04T08:34:16;1.97;;;1.70;;
8927;SDS011;4499;48.304;11.902;2022-07-04T08:36:45;2.73;;;1.90;;
8927;SDS011;4499;48.304;11.902;2022-07-04T08:39:13;3.00;;;1.70;;
8927;SDS011;4499;48.304;11.902;2022-07-04T08:41:43;3.67;;;1.70;;
8927;SDS011;4499;48.304;11.902;2022-07-04T08:44:11;2.70;;;1.60;;
8927;SDS011;4499;48.304;11.902;2022-07-04T08:46:41;4.80;;;1.70;;
8927;SDS011;4499;48.304;11.902;2022-07-04T08:49:11;4.00;;;1.70;;
8927;SDS011;4499;48.304;11.902;2022-07-04T08:51:47;2.67;;;1.50;;
8927;SDS011;4499;48.304;11.902;2022-07-04T08:54:22;2.07;;;1.50;;
8927;SDS011;4499;48.304;11.902;2022-07-04T08:57:09;2.93;;;1.60;;
8927;SDS011;4499;48.304;11.902;2022-07-04T08:59:57;1.67;;;1.40;;
8927;SDS011;4499;48.304;11.902;2022-07-04T09:02:28;2.10;;;1.40;;
8927;SDS011;4499;48.304;11.902;2022-07-04T09:04:59;5.03;;;1.50;;
8927;SDS011;4499;48.304;11.902;2022-07-04T09:07:28;4.90;;;1.60;;
8927;SDS011;4499;48.304;11.902;2022-07-04T09:10:00;2.17;;;1.30;;
8927;SDS011;4499;48.304;11.902;2022-07-04T09:12:31;2.55;;;1.52;;
8927;SDS011;4499;48.304;11.902;2022-07-04T09:15:19;2.55;;;1.60;;
8927;SDS011;4499;48.304;11.902;2022-07-04T09:17:49;4.57;;;1.55;;
8927;SDS011;4499;48.304;11.902;2022-07-04T09:20:18;3.25;;;1.40;;
8927;SDS011;4499;48.304;11.902;2022-07-04T09:22:50;2.80;;;1.50;;
8927;SDS011;4499;48.304;11.902;2022-07-04T09:25:20;3.03;;;1.35;;
8927;SDS011;4499;48.304;11.902;2022-07-04T09:27:59;3.75;;;1.60;;
8927;SDS011;4499;48.304;11.902;2022-07-04T09:30:30;1.75;;;1.42;;
8927;SDS011;4499;48.304;11.902;2022-07-04T09:33:00;4.15;;;1.52;;
8927;SDS011;4499;48.304;11.902;2022-07-04T09:35:31;2.90;;;1.60;;
8927;SDS011;4499;48.304;11.902;2022-07-04T09:38:03;3.42;;;1.50;;
8927;SDS011;4499;48.304;11.902;2022-07-04T09:40:33;1.98;;;1.38;;
8927;SDS011;4499;48.304;11.902;2022-07-04T09:43:23;3.80;;;1.65;;
8927;SDS011;4499;48.304;11.902;2022-07-04T09:45:54;2.70;;;1.48;;
8927;SDS011;4499;48.304;11.902;2022-07-04T09:48:25;1.95;;;1.35;;
8927;SDS011;4499;48.304;11.902;2022-07-04T09:51:01;3.00;;;1.42;;
8927;SDS011;4499;48.304;11.902;2022-07-04T09:53:30;1.67;;;1.20;;
8927;SDS011;4499;48.304;11.902;2022-07-04T09:56:00;3.00;;;1.50;;
8927;SDS011;4499;48.304;11.902;2022-07-04T09:58:28;3.30;;;1.48;;
8927;SDS011;4499;48.304;11.902;2022-07-04T10:00:58;2.92;;;1.42;;
8927;SDS011;4499;48.304;11.902;2022-07-04T10:03:30;2.58;;;1.20;;
8927;SDS011;4499;48.304;11.902;2022-07-04T10:06:02;2.85;;;1.30;;
8927;SDS011;4499;48.304;11.902;2022-07-04T10:08:33;1.65;;;1.10;;
8927;SDS011;4499;48.304;11.902;2022-07-04T10:11:02;4.43;;;1.42;;
8927;SDS011;4499;48.304;11.902;2022-07-04T10:13:35;1.95;;;1.20;;
8927;SDS011;4499;48.304;11.902;2022-07-04T10:16:04;3.08;;;1.20;;
8927;SDS011;4499;48.304;11.902;2022-07-04T10:18:49;3.90;;;1.20;;
8927;SDS011;4499;48.304;11.902;2022-07-04T10:21:18;2.15;;;1.00;;
8927;SDS011;4499;48.304;11.902;2022-07-04T10:23:47;2.17;;;0.90;;
8927;SDS011;4499;48.304;11.902;2022-07-04T10:26:17;2.17;;;1.10;;
8927;SDS011;4499;48.304;11.902;2022-07-04T10:28:46;2.60;;;1.30;;
8927;SDS011;4499;48.304;11.902;2022-07-04T10:31:15;3.38;;;1.30;;
8927;SDS011;4499;48.304;11.902;2022-07-04T10:33:45;2.88;;;1.20;;
8927;SDS011;4499;48.304;11.902;2022-07-04T10:36:16;1.65;;;1.00;;
8927;SDS011;4499;48.304;11.902;2022-07-04T10:38:49;1.10;;;0.90;;
8927;SDS011;4499;48.304;11.902;2022-07-04T10:41:19;1.88;;;1.17;;
8927;SDS011;4499;48.304;11.902;2022-07-04T10:43:51;1.45;;;1.10;;
8927;SDS011;4499;48.304;11.902;2022-07-04T10:46:30;1.20;;;1.00;;
8927;SDS011;4499;48.304;11.902;2022-07-04T10:49:00;1.48;;;1.08;;
8927;SDS011;4499;48.304;11.902;2022-07-04T10:51:36;1.70;;;1.10;;
8927;SDS011;4499;48.304;11.902;2022-07-04T10:54:07;1.77;;;1.20;;
8927;SDS011;4499;48.304;11.902;2022-07-04T10:56:38;1.50;;;0.90;;
8927;SDS011;4499;48.304;11.902;2022-07-04T10:59:12;2.10;;;1.00;;
8927;SDS011;4499;48.304;11.902;2022-07-04T11:01:51;1.02;;;0.93;;
8927;SDS011;4499;48.304;11.902;2022-07-04T11:04:45;4.45;;;1.17;;
8927;SDS011;4499;48.304;11.902;2022-07-04T11:07:16;1.63;;;1.10;;
8927;SDS011;4499;48.304;11.902;2022-07-04T11:09:45;1.58;;;1.13;;
8927;SDS011;4499;48.304;11.902;2022-07-04T11:12:34;1.92;;;1.08;;
8927;SDS011;4499;48.304;11.902;2022-07-04T11:18:27;1.65;;;1.23;;
8927;SDS011;4499;48.304;11.902;2022-07-04T11:20:56;7.78;;;1.27;;
8927;SDS011;4499;48.304;11.902;2022-07-04T11:23:26;1.45;;;1.10;;
8927;SDS011;4499;48.304;11.902;2022-07-04T11:25:58;2.03;;;1.10;;
8927;SDS011;4499;48.304;11.902;2022-07-04T11:28:30;1.85;;;1.13;;
8927;SDS011;4499;48.304;11.902;2022-07-04T11:31:11;2.13;;;1.00;;
8927;SDS011;4499;48.304;11.902;2022-07-04T11:33:41;1.65;;;1.45;;
8927;SDS011;4499;48.304;11.902;2022-07-04T11:36:13;2.57;;;1.30;;
8927;SDS011;4499;48.304;11.902;2022-07-04T11:38:46;4.55;;;1.50;;
8927;SDS011;4499;48.304;11.902;2022-07-04T11:41:20;2.67;;;1.30;;
8927;SDS011;4499;48.304;11.902;2022-07-04T11:44:09;3.10;;;1.20;;
8927;SDS011;4499;48.304;11.902;2022-07-04T11:47:03;1.77;;;1.23;;
8927;SDS011;4499;48.304;11.902;2022-07-04T11:49:33;2.30;;;1.30;;
8927;SDS011;4499;48.304;11.902;2022-07-04T11:52:02;1.30;;;1.20;;
8927;SDS011;4499;48.304;11.902;2022-07-04T11:54:32;4.57;;;1.40;;
8927;SDS011;4499;48.304;11.902;2022-07-04T11:57:20;1.17;;;1.08;;
8927;SDS011;4499;48.304;11.902;2022-07-04T11:59:56;1.65;;;1.20;;
8927;SDS011;4499;48.304;11.902;2022-07-04T12:02:27;1.90;;;1.00;;
8927;SDS011;4499;48.304;11.902;2022-07-04T12:04:56;1.33;;;1.20;;
8927;SDS011;4499;48.304;11.902;2022-07-04T12:07:25;3.43;;;1.30;;
8927;SDS011;4499;48.304;11.902;2022-07-04T12:09:56;1.37;;;1.27;;
8927;SDS011;4499;48.304;11.902;2022-07-04T12:12:34;3.83;;;1.40;;
8927;SDS011;4499;48.304;11.902;2022-07-04T12:15:03;2.07;;;1.40;;
8927;SDS011;4499;48.304;11.902;2022-07-04T12:17:33;2.50;;;1.30;;
8927;SDS011;4499;48.304;11.902;2022-07-04T12:20:09;1.60;;;1.20;;
8927;SDS011;4499;48.304;11.902;2022-07-04T12:22:40;2.33;;;1.17;;
8927;SDS011;4499;48.304;11.902;2022-07-04T12:25:21;2.43;;;1.37;;
8927;SDS011;4499;48.304;11.902;2022-07-04T12:27:52;4.13;;;1.47;;
8927;SDS011;4499;48.304;11.902;2022-07-04T12:30:21;2.17;;;1.10;;
8927;SDS011;4499;48.304;11.902;2022-07-04T12:32:50;2.50;;;1.23;;
8927;SDS011;4499;48.304;11.902;2022-07-04T12:35:39;4.17;;;1.57;;
8927;SDS011;4499;48.304;11.902;2022-07-04T12:38:15;2.53;;;1.50;;
8927;SDS011;4499;48.304;11.902;2022-07-04T12:40:53;1.60;;;1.07;;
8927;SDS011;4499;48.304;11.902;2022-07-04T12:43:23;2.30;;;1.33;;
8927;SDS011;4499;48.304;11.902;2022-07-04T12:45:53;2.10;;;1.07;;
8927;SDS011;4499;48.304;11.902;2022-07-04T12:48:23;2.57;;;1.10;;
8927;SDS011;4499;48.304;11.902;2022-07-04T12:50:54;3.80;;;1.47;;
8927;SDS011;4499;48.304;11.902;2022-07-04T12:53:36;1.30;;;1.20;;
8927;SDS011;4499;48.304;11.902;2022-07-04T12:56:07;2.53;;;1.20;;
8927;SDS011;4499;48.304;11.902;2022-07-04T12:58:37;2.87;;;1.50;;
8927;SDS011;4499;48.304;11.902;2022-07-04T13:01:05;2.20;;;1.37;;
8927;SDS011;4499;48.304;11.902;2022-07-04T13:03:33;2.83;;;1.20;;
8927;SDS011;4499;48.304;11.902;2022-07-04T13:06:02;3.57;;;1.43;;
8927;SDS011;4499;48.304;11.902;2022-07-04T13:08:30;3.30;;;1.30;;
8927;SDS011;4499;48.304;11.902;2022-07-04T13:11:01;2.67;;;1.10;;
8927;SDS011;4499;48.304;11.902;2022-07-04T13:13:48;1.30;;;1.20;;
8927;SDS011;4499;48.304;11.902;2022-07-04T13:16:17;3.67;;;1.50;;
8927;SDS011;4499;48.304;11.902;2022-07-04T13:18:45;1.73;;;1.33;;
8927;SDS011;4499;48.304;11.902;2022-07-04T13:21:14;2.33;;;1.37;;
8927;SDS011;4499;48.304;11.902;2022-07-04T13:23:43;1.67;;;1.50;;
8927;SDS011;4499;48.304;11.902;2022-07-04T13:26:11;1.40;;;1.30;;
8927;SDS011;4499;48.304;11.902;2022-07-04T13:28:40;1.50;;;1.30;;
8927;SDS011;4499;48.304;11.902;2022-07-04T13:31:10;2.13;;;1.40;;
8927;SDS011;4499;48.304;11.902;2022-07-04T13:33:39;3.73;;;1.53;;
8927;SDS011;4499;48.304;11.902;2022-07-04T13:36:07;1.63;;;1.33;;
8927;SDS011;4499;48.304;11.902;2022-07-04T13:38:35;2.83;;;1.30;;
8927;SDS011;4499;48.304;11.902;2022-07-04T13:41:23;2.80;;;1.40;;
8927;SDS011;4499;48.304;11.902;2022-07-04T13:43:52;1.83;;;1.20;;
8927;SDS011;4499;48.304;11.902;2022-07-04T13:46:24;2.03;;;1.43;;
8927;SDS011;4499;48.304;11.902;2022-07-04T13:48:53;3.10;;;1.63;;
8927;SDS011;4499;48.304;11.902;2022-07-04T13:51:21;2.97;;;1.50;;
8927;SDS011;4499;48.304;11.902;2022-07-04T13:53:49;2.13;;;1.40;;
8927;SDS011;4499;48.304;11.902;2022-07-04T13:56:18;5.13;;;1.60;;
8927;SDS011;4499;48.304;11.902;2022-07-04T13:58:47;3.93;;;1.60;;
8927;SDS011;4499;48.304;11.902;2022-07-04T14:01:16;4.53;;;1.60;;
8927;SDS011;4499;48.304;11.902;2022-07-04T14:03:48;3.93;;;1.33;;
8927;SDS011;4499;48.304;11.902;2022-07-04T14:06:17;1.93;;;1.30;;
8927;SDS011;4499;48.304;11.902;2022-07-04T14:08:46;2.57;;;1.40;;
8927;SDS011;4499;48.304;11.902;2022-07-04T14:11:15;1.93;;;1.40;;
8927;SDS011;4499;48.304;11.902;2022-07-04T14:13:44;2.47;;;1.30;;
8927;SDS011;4499;48.304;11.902;2022-07-04T14:16:12;3.63;;;1.47;;
8927;SDS011;4499;48.304;11.902;2022-07-04T14:18:41;3.50;;;1.80;;
8927;SDS011;4499;48.304;11.902;2022-07-04T14:21:12;3.50;;;1.53;;
8927;SDS011;4499;48.304;11.902;2022-07-04T14:23:42;2.33;;;1.60;;
8927;SDS011;4499;48.304;11.902;2022-07-04T14:26:12;3.83;;;1.70;;
8927;SDS011;4499;48.304;11.902;2022-07-04T14:28:42;2.87;;;1.50;;
8927;SDS011;4499;48.304;11.902;2022-07-04T14:31:14;2.20;;;1.47;;
8927;SDS011;4499;48.304;11.902;2022-07-04T14:33:43;3.10;;;1.57;;
8927;SDS011;4499;48.304;11.902;2022-07-04T14:36:14;2.53;;;1.50;;
8927;SDS011;4499;48.304;11.902;2022-07-04T14:38:42;3.83;;;1.47;;
8927;SDS011;4499;48.304;11.902;2022-07-04T14:41:11;2.67;;;1.30;;
8927;SDS011;4499;48.304;11.902;2022-07-04T14:43:39;1.83;;;1.50;;
8927;SDS011;4499;48.304;11.902;2022-07-04T14:46:08;2.13;;;1.20;;
8927;SDS011;4499;48.304;11.902;2022-07-04T14:48:38;2.10;;;1.50;;
8927;SDS011;4499;48.304;11.902;2022-07-04T14:51:06;1.53;;;1.20;;
8927;SDS011;4499;48.304;11.902;2022-07-04T14:53:36;3.67;;;1.50;;
8927;SDS011;4499;48.304;11.902;2022-07-04T14:56:05;4.03;;;1.50;;
8927;SDS011;4499;48.304;11.902;2022-07-04T14:58:33;2.53;;;1.30;;
8927;SDS011;4499;48.304;11.902;2022-07-04T15:01:02;2.60;;;1.60;;
8927;SDS011;4499;48.304;11.902;2022-07-04T15:03:30;2.07;;;1.30;;
8927;SDS011;4499;48.304;11.902;2022-07-04T15:05:58;2.60;;;1.40;;
8927;SDS011;4499;48.304;11.902;2022-07-04T15:08:27;2.90;;;1.47;;
8927;SDS011;4499;48.304;11.902;2022-07-04T15:10:57;4.23;;;1.50;;
8927;SDS011;4499;48.304;11.902;2022-07-04T15:13:26;2.23;;;1.63;;
8927;SDS011;4499;48.304;11.902;2022-07-04T15:15:56;4.27;;;1.50;;
8927;SDS011;4499;48.304;11.902;2022-07-04T15:18:44;3.43;;;1.60;;
8927;SDS011;4499;48.304;11.902;2022-07-04T15:21:13;4.67;;;1.70;;
8927;SDS011;4499;48.304;11.902;2022-07-04T15:23:59;5.50;;;2.57;;
8927;SDS011;4499;48.304;11.902;2022-07-04T15:26:43;2.57;;;1.47;;
8927;SDS011;4499;48.304;11.902;2022-07-04T15:29:13;1.90;;;1.33;;